The Pas Airport
CYQD : rendu visible

Aérodrome :











RETROUVEZ-NOUS SUR...

 
LOGIN :

S'inscrire | Disclaimer

   EN    FR    IT 

 









Légende :    VFR   VFR Marginal   IFR   IFR Intensif   IFR Très Intensif
Visi : 
Plafond : 
>= 8 km
>= 3000ft
5 à 8 km
1000 à 3000 ft
1500m à 5 km
500 à 1000 ft
800 à 1500m
200 à 500 ft
< 800m
< 200 ft
Symboles :   Orages  Brouillard  Fortes neiges  Fortes précipitations  Vent > 20 kt






- Altitude de l'aérodrome : 887 ft
- Code IATA : YQD


CYQD - The Pas

DERNIER METAR :
  • 300200Z AUTO 00000KT 9SM CLR 12/01 A3024 RMK SLP253

METARs EXPIRÉS :
  • 300100Z AUTO VRB02KT 9SM CLR 12/01 A3024 RMK SLP252
  • 300009Z AUTO 29004KT 260V050 9SM SCT060 OVC077 12/01 A3025 RMK SLP256
  • 292332Z AUTO 04003KT 010V100 6SM -RA BKN060 OVC082 12/00 A3025 RMK SLP257
  • 292320Z AUTO 06003KT 350V080 5SM HZ BKN065 OVC083 12/00 A3025 RMK SLP255

TAF TAF CYQD
Valide du 30 à 01h jusqu'au 30 à 13h UTC


300038Z 3001/3013 VRB03KT P6SM SCT060
TEMPO 3001/3002 P6SM -SHRA BKN060
FM300600 VRB03KT P6SM SKC RMK FCST BASED ON AUTO OBS. NXT FCST BY 300700Z
FIR CZWG / Amérique du Nord



MET'MAP, la Météo Aéronautique d'un coup d'oeil ! - Copyright ORBIFLY Décembre 2007 - Disclaimer

ORBIFLY MET'MAP TEAM :

Programmation & Développement : Alexandra Zaïnal
Sur une idée originale de : Baudouin d'Aumeries
Assistance à la programmation : Marc-Olivier Méhu
Soutien technique & logistique : Manuel Goepfert

Contact : metmap@orbifly.com




SOURCES & CREDITS :

   NOAA       Earth
Advisory